Time,TemperatureF,DewpointF,PressureIn,WindDirection,WindDirectionDegrees,WindSpeedMPH,WindSpeedGustMPH,Humidity,HourlyPrecipIn,Conditions,Clouds,dailyrainin,SoftwareType,DateUTC
2013-05-14 05:04:00,46.0,35.0,29.73,North,0,0.0,0.0,65,0.00,,,0.02,,2013-05-14 10:04:00,
2013-05-14 05:14:00,46.0,35.0,29.73,North,0,0.0,0.0,65,0.00,,,0.02,,2013-05-14 10:14:00,
2013-05-14 05:25:00,46.0,35.0,29.73,North,0,0.0,0.0,66,0.00,,,0.02,,2013-05-14 10:25:00,
2013-05-14 05:33:00,45.0,35.0,29.72,SSE,156,0.0,13.0,68,0.00,,,0.02,,2013-05-14 10:33:00,
2013-05-14 05:42:00,45.0,35.0,29.72,SSE,156,0.0,13.0,68,0.00,,,0.02,,2013-05-14 10:42:00,
2013-05-14 05:52:00,45.0,35.0,29.71,SSE,156,0.0,1.0,68,0.00,,,0.02,,2013-05-14 10:52:00,
2013-05-14 06:02:00,44.0,34.0,29.71,SSE,156,0.0,3.0,69,0.00,,,0.02,,2013-05-14 11:02:00,
2013-05-14 06:11:00,44.0,34.0,29.71,SSE,156,0.0,3.0,69,0.00,,,0.02,,2013-05-14 11:11:00,
2013-05-14 06:21:00,44.0,35.0,29.72,SSE,156,0.0,2.0,70,0.00,,,0.02,,2013-05-14 11:21:00,
2013-05-14 06:32:00,44.0,35.0,29.71,SSE,156,0.0,4.0,71,0.00,,,0.02,,2013-05-14 11:32:00,
2013-05-14 06:43:00,45.0,36.0,29.72,North,0,0.0,0.0,71,0.00,,,0.02,,2013-05-14 11:43:00,
2013-05-14 06:52:00,45.0,36.0,29.72,North,0,0.0,0.0,71,0.00,,,0.02,,2013-05-14 11:52:00,
2013-05-14 07:02:00,45.0,36.0,29.72,North,0,0.0,0.0,71,0.00,,,0.02,,2013-05-14 12:02:00,
2013-05-14 07:12:00,45.0,36.0,29.72,North,0,0.0,0.0,71,0.00,,,0.02,,2013-05-14 12:12:00,
2013-05-14 07:21:00,46.0,37.0,29.72,North,0,0.0,0.0,71,0.00,,,0.02,,2013-05-14 12:21:00,
2013-05-14 07:32:00,48.0,39.0,29.72,North,0,0.0,0.0,71,0.00,,,0.02,,2013-05-14 12:32:00,
2013-05-14 07:42:00,51.0,42.0,29.72,North,0,0.0,0.0,71,0.00,,,0.02,,2013-05-14 12:42:00,
2013-05-14 07:51:00,51.0,42.0,29.72,North,0,0.0,0.0,71,0.00,,,0.02,,2013-05-14 12:51:00,
2013-05-14 08:01:00,58.0,46.0,29.72,SSE,156,0.0,1.0,64,0.00,,,0.02,,2013-05-14 13:01:00,
2013-05-14 08:11:00,58.0,46.0,29.72,SSE,156,0.0,1.0,64,0.00,,,0.02,,2013-05-14 13:11:00,
2013-05-14 08:22:00,59.0,45.0,29.71,West,265,0.0,2.0,60,0.00,,,0.02,,2013-05-14 13:22:00,
2013-05-14 08:32:00,58.0,45.0,29.72,West,261,1.0,4.0,62,0.00,,,0.02,,2013-05-14 13:32:00,
2013-05-14 08:41:00,58.0,45.0,29.72,West,261,1.0,4.0,62,0.00,,,0.02,,2013-05-14 13:41:00,
2013-05-14 08:52:00,58.0,45.0,29.72,West,261,1.0,4.0,62,0.00,,,0.02,,2013-05-14 13:52:00,
2013-05-14 09:01:00,62.0,47.0,29.70,West,271,0.0,4.0,59,0.00,,,0.02,,2013-05-14 14:01:00,
2013-05-14 09:11:00,63.0,48.0,29.71,West,275,0.0,2.0,59,0.00,,,0.02,,2013-05-14 14:11:00,
2013-05-14 09:22:00,63.0,48.0,29.71,West,275,0.0,2.0,59,0.00,,,0.02,,2013-05-14 14:22:00,
2013-05-14 09:31:00,64.0,48.0,29.71,NNW,341,0.0,3.0,57,0.00,,,0.02,,2013-05-14 14:31:00,
2013-05-14 09:41:00,64.0,48.0,29.72,NW,321,1.0,4.0,57,0.00,,,0.02,,2013-05-14 14:41:00,
2013-05-14 09:52:00,64.0,48.0,29.72,NW,321,1.0,4.0,57,0.00,,,0.02,,2013-05-14 14:52:00,
2013-05-14 10:01:00,65.0,49.0,29.72,NW,324,2.0,5.0,56,0.00,,,0.02,,2013-05-14 15:01:00,
2013-05-14 10:12:00,65.0,49.0,29.72,NW,324,2.0,5.0,56,0.00,,,0.02,,2013-05-14 15:12:00,
2013-05-14 10:21:00,65.0,48.0,29.72,NNW,340,2.0,4.0,55,0.00,,,0.02,,2013-05-14 15:21:00,
2013-05-14 10:33:00,66.0,49.0,29.73,NNW,332,1.0,4.0,54,0.00,,,0.02,,2013-05-14 15:33:00,
2013-05-14 10:43:00,67.0,49.0,29.73,North,7,1.0,3.0,53,0.00,,,0.02,,2013-05-14 15:43:00,
2013-05-14 10:53:00,67.0,49.0,29.73,North,7,1.0,3.0,53,0.00,,,0.02,,2013-05-14 15:53:00,
2013-05-14 11:02:00,68.0,49.0,29.73,NNE,20,1.0,6.0,51,0.00,,,0.02,,2013-05-14 16:02:00,
2013-05-14 11:12:00,68.0,49.0,29.73,NNE,20,1.0,6.0,51,0.00,,,0.02,,2013-05-14 16:12:00,
2013-05-14 11:23:00,70.0,50.0,29.73,NW,312,0.0,2.0,50,0.00,,,0.02,,2013-05-14 16:23:00,
2013-05-14 11:33:00,73.0,52.0,29.74,WSW,255,1.0,4.0,48,0.00,,,0.02,,2013-05-14 16:33:00,
2013-05-14 11:43:00,73.0,52.0,29.74,WSW,255,1.0,4.0,48,0.00,,,0.02,,2013-05-14 16:43:00,
2013-05-14 11:54:00,74.0,52.0,29.75,SSE,156,1.0,3.0,46,0.00,,,0.02,,2013-05-14 16:54:00,
2013-05-14 12:03:00,75.0,52.0,29.75,SSE,168,1.0,4.0,44,0.00,,,0.02,,2013-05-14 17:03:00,
2013-05-14 12:13:00,75.0,52.0,29.75,SSE,168,1.0,4.0,44,0.00,,,0.02,,2013-05-14 17:13:00,
2013-05-14 12:24:00,77.0,52.0,29.76,SSE,159,0.0,3.0,42,0.00,,,0.02,,2013-05-14 17:24:00,
2013-05-14 12:32:00,78.0,52.0,29.76,NNE,13,0.0,3.0,41,0.00,,,0.02,,2013-05-14 17:32:00,
2013-05-14 12:43:00,78.0,52.0,29.76,NNE,13,0.0,3.0,41,0.00,,,0.02,,2013-05-14 17:43:00,
2013-05-14 12:52:00,78.0,52.0,29.77,North,355,1.0,5.0,40,0.00,,,0.02,,2013-05-14 17:52:00,
2013-05-14 13:02:00,79.0,52.0,29.78,NNW,332,2.0,6.0,39,0.00,,,0.02,,2013-05-14 18:02:00,
2013-05-14 13:12:00,79.0,52.0,29.78,NNW,332,2.0,6.0,39,0.00,,,0.02,,2013-05-14 18:12:00,
2013-05-14 13:22:00,79.0,51.0,29.78,NW,318,1.0,6.0,38,0.00,,,0.02,,2013-05-14 18:22:00,
2013-05-14 13:32:00,78.0,50.0,29.78,NW,306,1.0,4.0,38,0.00,,,0.00,,2013-05-14 18:32:00,
2013-05-14 13:42:00,78.0,50.0,29.78,NW,306,1.0,4.0,38,0.00,,,0.00,,2013-05-14 18:42:00,
2013-05-14 13:52:00,77.0,49.0,29.78,NNW,337,0.0,2.0,38,0.00,,,0.00,,2013-05-14 18:52:00,
2013-05-14 14:01:00,76.0,49.0,29.78,NNW,337,0.0,2.0,38,0.00,,,0.00,,2013-05-14 19:01:00,
2013-05-14 14:12:00,76.0,49.0,29.78,NNW,337,0.0,2.0,38,0.00,,,0.00,,2013-05-14 19:12:00,
2013-05-14 14:22:00,74.0,51.0,29.71,ESE,123,1.0,3.0,44,0.00,,,0.00,,2013-05-14 19:22:00,
2013-05-14 14:32:00,71.0,52.0,29.70,SE,135,0.0,1.0,51,0.00,,,0.00,,2013-05-14 19:32:00,
2013-05-14 14:42:00,71.0,52.0,29.70,SE,135,0.0,1.0,51,0.00,,,0.00,,2013-05-14 19:42:00,
2013-05-14 14:52:00,74.0,52.0,29.71,SSE,157,0.0,2.0,46,0.00,,,0.00,,2013-05-14 19:52:00,
2013-05-14 15:02:00,78.0,53.0,29.70,SE,136,1.0,4.0,42,0.00,,,0.00,,2013-05-14 20:02:00,
2013-05-14 15:11:00,78.0,53.0,29.70,SE,136,1.0,4.0,42,0.00,,,0.00,,2013-05-14 20:11:00,
2013-05-14 15:23:00,80.0,53.0,29.67,SSE,159,3.0,8.0,40,0.00,,,0.00,,2013-05-14 20:23:00,
2013-05-14 15:32:00,81.0,53.0,29.67,SSE,163,2.0,6.0,38,0.00,,,0.00,,2013-05-14 20:32:00,
2013-05-14 15:44:00,82.0,52.0,29.65,SE,134,2.0,6.0,36,0.00,,,0.00,,2013-05-14 20:44:00,
2013-05-14 15:52:00,82.0,52.0,29.65,SE,134,2.0,6.0,36,0.00,,,0.00,,2013-05-14 20:52:00,
2013-05-14 16:03:00,83.0,52.0,29.65,SE,142,1.0,5.0,35,0.00,,,0.00,,2013-05-14 21:03:00,
2013-05-14 16:12:00,83.0,52.0,29.66,SE,143,1.0,6.0,35,0.00,,,0.00,,2013-05-14 21:12:00,
2013-05-14 16:23:00,83.0,52.0,29.66,SE,143,1.0,6.0,35,0.00,,,0.00,,2013-05-14 21:23:00,
2013-05-14 16:33:00,82.0,52.0,29.63,SE,142,2.0,6.0,35,0.00,,,0.00,,2013-05-14 21:33:00,
2013-05-14 16:43:00,83.0,52.0,29.62,SSW,212,3.0,7.0,35,0.00,,,0.00,,2013-05-14 21:43:00,
2013-05-14 16:52:00,83.0,52.0,29.62,SSW,212,3.0,7.0,35,0.00,,,0.00,,2013-05-14 21:52:00,
2013-05-14 17:03:00,83.0,53.0,29.62,South,170,2.0,7.0,36,0.00,,,0.00,,2013-05-14 22:03:00,
2013-05-14 17:13:00,83.0,53.0,29.62,South,170,2.0,7.0,36,0.00,,,0.00,,2013-05-14 22:13:00,
2013-05-14 17:24:00,83.0,53.0,29.62,South,171,3.0,10.0,36,0.00,,,0.00,,2013-05-14 22:24:00,
2013-05-14 17:34:00,83.0,54.0,29.61,SSE,151,2.0,8.0,37,0.00,,,0.00,,2013-05-14 22:34:00,
2013-05-14 17:45:00,83.0,54.0,29.61,SSE,151,2.0,8.0,37,0.00,,,0.00,,2013-05-14 22:45:00,
2013-05-14 17:54:00,83.0,55.0,29.61,SSE,153,3.0,12.0,38,0.00,,,0.00,,2013-05-14 22:54:00,
2013-05-14 18:03:00,83.0,55.0,29.60,SSE,156,3.0,9.0,39,0.00,,,0.00,,2013-05-14 23:03:00,
2013-05-14 18:21:00,83.0,56.0,29.59,SSE,157,3.0,9.0,40,0.00,,,0.00,,2013-05-14 23:21:00,
2013-05-14 18:32:00,82.0,56.0,29.58,SSE,154,2.0,6.0,41,0.00,,,0.00,,2013-05-14 23:32:00,
2013-05-14 18:52:00,82.0,57.0,29.57,SSE,156,2.0,9.0,42,0.00,,,0.00,,2013-05-14 23:52:00,
2013-05-14 19:02:00,81.0,56.0,29.56,SE,140,1.0,5.0,43,0.00,,,0.00,,2013-05-15 00:02:00,
2013-05-14 19:21:00,80.0,57.0,29.56,SSE,151,0.0,4.0,45,0.00,,,0.00,,2013-05-15 00:21:00,
2013-05-14 19:32:00,80.0,57.0,29.55,SSE,154,1.0,4.0,46,0.00,,,0.00,,2013-05-15 00:32:00,
2013-05-14 19:41:00,78.0,55.0,29.54,SSE,150,2.0,5.0,45,0.00,,,0.00,,2013-05-15 00:41:00,
2013-05-14 19:51:00,78.0,55.0,29.54,SSE,150,2.0,5.0,45,0.00,,,0.00,,2013-05-15 00:51:00,
2013-05-14 20:01:00,77.0,55.0,29.54,SSE,151,0.0,4.0,46,0.00,,,0.00,,2013-05-15 01:01:00,
2013-05-14 20:11:00,77.0,55.0,29.54,SSE,151,0.0,4.0,46,0.00,,,0.00,,2013-05-15 01:11:00,
2013-05-14 20:21:00,76.0,54.0,29.54,South,181,0.0,3.0,47,0.00,,,0.00,,2013-05-15 01:21:00,
2013-05-14 20:32:00,75.0,54.0,29.53,SSE,152,0.0,4.0,48,0.00,,,0.00,,2013-05-15 01:32:00,
2013-05-14 20:42:00,74.0,54.0,29.53,ESE,123,0.0,2.0,49,0.00,,,0.00,,2013-05-15 01:42:00,
2013-05-14 20:52:00,74.0,54.0,29.53,ESE,123,0.0,2.0,49,0.00,,,0.00,,2013-05-15 01:52:00,
2013-05-14 21:02:00,74.0,55.0,29.54,SSE,156,0.0,3.0,51,0.00,,,0.00,,2013-05-15 02:02:00,
2013-05-14 21:11:00,74.0,55.0,29.54,SSE,156,0.0,3.0,51,0.00,,,0.00,,2013-05-15 02:11:00,
2013-05-14 21:21:00,73.0,54.0,29.54,South,177,0.0,2.0,52,0.00,,,0.00,,2013-05-15 02:21:00,
2013-05-14 21:31:00,71.0,53.0,29.54,South,181,0.0,4.0,53,0.00,,,0.00,,2013-05-15 02:31:00,
2013-05-14 21:42:00,71.0,53.0,29.54,South,181,0.0,4.0,53,0.00,,,0.00,,2013-05-15 02:42:00,
2013-05-14 21:52:00,71.0,53.0,29.54,South,181,0.0,4.0,53,0.00,,,0.00,,2013-05-15 02:52:00,
2013-05-14 22:01:00,71.0,53.0,29.54,South,181,0.0,4.0,53,0.00,,,0.00,,2013-05-15 03:01:00,
2013-05-14 22:12:00,71.0,53.0,29.54,South,181,0.0,4.0,53,0.00,,,0.00,,2013-05-15 03:12:00,